Time;durP1;ratioP1;P1;durP2;ratioP2;P2;SDS_P1;SDS_P2;PMS_P1;PMS_P2;Temp;Humidity;BMP_temperature;BMP_pressure;BME280_temperature;BME280_humidity;BME280_pressure;Samples;Min_cycle;Max_cycle;Signal;HPM_P1;HPM_P2
2021/12/28 00:01:33;;;;;;;17.65;10.48;;;4.20;99.90;;;;;;5135646;27;20107;-65
2021/12/28 00:04:00;;;;;;;15.77;11.10;;;4.30;99.90;;;;;;5135517;27;20042;-65
2021/12/28 00:06:27;;;;;;;16.70;10.68;;;4.30;99.90;;;;;;5135075;27;20043;-65
2021/12/28 00:08:55;;;;;;;15.55;10.70;;;4.30;99.90;;;;;;5135715;27;20157;-66
2021/12/28 00:11:22;;;;;;;15.02;10.50;;;4.40;99.90;;;;;;5135979;27;20110;-65
2021/12/28 00:13:49;;;;;;;12.82;10.23;;;4.30;99.90;;;;;;5153656;27;20562;-65
2021/12/28 00:17:58;;;;;;;15.30;10.57;;;4.30;99.90;;;;;;5137489;27;20059;-65
2021/12/28 00:19:21;;;;;;;16.52;10.20;;;4.30;99.90;;;;;;5138147;27;20051;-66
2021/12/28 00:21:48;;;;;;;13.95;9.75;;;4.30;99.90;;;;;;5134937;27;20054;-66
2021/12/28 00:24:16;;;;;;;18.23;11.30;;;4.30;99.90;;;;;;5119097;27;20096;-66
2021/12/28 00:26:43;;;;;;;16.55;10.20;;;4.30;99.90;;;;;;5118549;27;20051;-66
2021/12/28 00:29:10;;;;;;;15.50;11.10;;;4.30;99.90;;;;;;5119071;27;20111;-66
2021/12/28 00:31:37;;;;;;;15.10;10.65;;;4.30;99.90;;;;;;5118972;27;20096;-66
2021/12/28 00:34:04;;;;;;;20.45;12.35;;;4.30;99.90;;;;;;5136747;27;20047;-66
2021/12/28 00:36:31;;;;;;;17.70;11.32;;;4.20;99.90;;;;;;5118966;27;20116;-66
2021/12/28 00:39:00;;;;;;;18.65;12.15;;;4.20;99.90;;;;;;5119548;27;20051;-66
2021/12/28 00:41:29;;;;;;;16.88;10.93;;;4.20;99.90;;;;;;5138460;27;20039;-66
2021/12/28 00:43:55;;;;;;;18.63;12.50;;;4.30;99.90;;;;;;5139461;27;20050;-66
2021/12/28 00:46:22;;;;;;;18.77;12.10;;;4.20;99.90;;;;;;5139086;27;20103;-66
2021/12/28 00:48:49;;;;;;;19.05;12.40;;;4.30;99.90;;;;;;5138729;27;20058;-65
2021/12/28 00:51:16;;;;;;;17.77;12.20;;;4.30;99.90;;;;;;5135053;27;20083;-66
2021/12/28 00:53:43;;;;;;;20.23;13.73;;;4.30;99.90;;;;;;5118701;27;20158;-66
2021/12/28 00:56:10;;;;;;;21.40;13.75;;;4.30;99.90;;;;;;5118398;27;20479;-66
2021/12/28 00:58:38;;;;;;;17.83;12.43;;;4.30;99.90;;;;;;5119046;27;20051;-65
2021/12/28 01:01:05;;;;;;;17.33;13.15;;;4.30;99.90;;;;;;5134094;27;20071;-65
2021/12/28 01:03:34;;;;;;;19.55;12.88;;;4.30;99.90;;;;;;5118816;27;20526;-65
2021/12/28 01:06:01;;;;;;;21.15;13.13;;;4.30;99.90;;;;;;5118644;27;20495;-66
2021/12/28 01:08:28;;;;;;;19.10;13.80;;;4.30;99.90;;;;;;5117802;27;20050;-65
2021/12/28 01:10:56;;;;;;;18.15;13.10;;;4.30;99.90;;;;;;5118913;27;20407;-65
2021/12/28 01:13:23;;;;;;;21.17;14.75;;;4.30;99.90;;;;;;5118706;27;20051;-66
2021/12/28 01:15:52;;;;;;;25.02;15.57;;;4.30;99.90;;;;;;5117540;27;20502;-66
2021/12/28 01:18:20;;;;;;;21.98;14.02;;;4.30;99.90;;;;;;5118137;27;20100;-65
2021/12/28 01:20:47;;;;;;;22.50;14.65;;;4.40;99.90;;;;;;5118305;27;20058;-67
2021/12/28 01:23:14;;;;;;;22.42;15.23;;;4.30;99.90;;;;;;5117712;27;20100;-64
2021/12/28 01:25:42;;;;;;;23.52;15.35;;;4.40;99.90;;;;;;5118304;27;20051;-65
2021/12/28 01:28:09;;;;;;;22.80;15.02;;;4.40;99.90;;;;;;5117184;27;20082;-65
2021/12/28 01:30:39;;;;;;;27.95;16.95;;;4.40;99.90;;;;;;5117370;27;20194;-65
2021/12/28 01:33:08;;;;;;;24.60;16.08;;;4.40;99.90;;;;;;5118550;27;20404;-65
2021/12/28 01:35:35;;;;;;;25.23;15.93;;;4.40;99.90;;;;;;5117905;27;20053;-65
2021/12/28 01:38:03;;;;;;;28.58;17.80;;;4.40;99.90;;;;;;5117639;27;20079;-65
2021/12/28 01:40:34;;;;;;;31.48;19.17;;;4.50;99.90;;;;;;5117839;27;20047;-65
2021/12/28 01:43:11;;;;;;;33.15;17.92;;;4.50;99.90;;;;;;5138428;27;20082;-64
2021/12/28 01:45:42;;;;;;;30.88;19.70;;;4.60;99.90;;;;;;5138578;27;20432;-64
2021/12/28 01:48:12;;;;;;;40.20;21.45;;;4.60;99.90;;;;;;5138665;27;20118;-65
2021/12/28 01:50:40;;;;;;;35.50;19.98;;;4.60;99.90;;;;;;5136895;27;20062;-65
2021/12/28 01:53:08;;;;;;;39.97;21.48;;;4.70;99.90;;;;;;5138288;27;20039;-65
2021/12/28 01:55:38;;;;;;;43.00;22.73;;;4.70;99.90;;;;;;5138114;27;20046;-65
2021/12/28 01:58:05;;;;;;;44.28;23.85;;;4.80;99.90;;;;;;5137171;27;20135;-64
2021/12/28 02:00:33;;;;;;;44.40;24.60;;;4.80;99.90;;;;;;5137766;27;20517;-64
2021/12/28 02:03:05;;;;;;;49.92;26.30;;;4.90;99.90;;;;;;5138195;27;20058;-64
2021/12/28 02:05:33;;;;;;;43.85;24.17;;;4.90;99.90;;;;;;5137667;27;20054;-65
2021/12/28 02:08:00;;;;;;;52.13;25.25;;;5.00;99.90;;;;;;5127237;27;20047;-64
2021/12/28 02:10:27;;;;;;;49.05;27.38;;;5.00;99.90;;;;;;5117353;27;20051;-65
2021/12/28 02:12:54;;;;;;;48.05;25.73;;;5.10;99.90;;;;;;5135444;27;20096;-65
2021/12/28 02:15:21;;;;;;;59.42;27.98;;;5.10;99.90;;;;;;5135558;27;20043;-65
2021/12/28 02:17:48;;;;;;;64.22;29.50;;;5.10;99.90;;;;;;5135644;27;20551;-65
2021/12/28 02:20:19;;;;;;;59.65;29.05;;;5.10;99.90;;;;;;5123430;27;20570;-64
2021/12/28 02:22:45;;;;;;;;;;;5.10;99.90;;;;;;5138285;27;20747;-65
2021/12/28 02:25:13;;;;;;;61.45;28.48;;;5.30;99.90;;;;;;5137391;27;19926;-65
2021/12/28 02:27:41;;;;;;;67.50;28.77;;;5.20;99.90;;;;;;5137081;27;20099;-65
2021/12/28 02:30:11;;;;;;;71.45;31.23;;;5.30;99.90;;;;;;5137717;27;20095;-65
2021/12/28 02:32:39;;;;;;;76.43;32.05;;;5.30;99.90;;;;;;5117408;27;20051;-66
2021/12/28 02:35:08;;;;;;;82.95;33.05;;;5.40;99.90;;;;;;5135186;27;20047;-66
2021/12/28 02:37:36;;;;;;;87.05;33.30;;;5.30;99.90;;;;;;5134909;27;20116;-66
2021/12/28 02:40:04;;;;;;;90.10;33.60;;;5.40;99.90;;;;;;5116125;27;20193;-65
2021/12/28 02:42:30;;;;;;;117.50;35.70;;;5.40;99.90;;;;;;5133237;27;20103;-66
2021/12/28 02:45:00;;;;;;;81.15;33.75;;;5.40;99.90;;;;;;5137040;27;20546;-66
2021/12/28 02:47:28;;;;;;;81.82;34.47;;;5.40;99.90;;;;;;5136387;27;20099;-66
2021/12/28 02:49:55;;;;;;;81.78;33.13;;;5.50;99.90;;;;;;5136145;27;20614;-66
2021/12/28 02:52:22;;;;;;;83.40;34.20;;;5.50;99.90;;;;;;5137177;27;20116;-66
2021/12/28 02:54:50;;;;;;;108.70;38.88;;;5.50;99.90;;;;;;5136306;27;20047;-66
2021/12/28 02:57:17;;;;;;;100.25;36.42;;;5.50;99.90;;;;;;5137019;27;20046;-66
2021/12/28 02:59:48;;;;;;;97.15;38.65;;;5.50;99.90;;;;;;5136627;27;20448;-66
2021/12/28 03:02:16;;;;;;;92.30;35.70;;;5.60;99.90;;;;;;5136071;27;20050;-66
2021/12/28 03:04:43;;;;;;;108.63;40.28;;;5.60;99.90;;;;;;5136387;27;20095;-66
2021/12/28 03:07:10;;;;;;;95.82;36.42;;;5.60;99.90;;;;;;5136927;27;20055;-66
2021/12/28 03:09:38;;;;;;;118.20;42.35;;;5.60;99.90;;;;;;5136184;27;20051;-66
2021/12/28 03:12:09;;;;;;;99.10;37.83;;;5.60;99.90;;;;;;5136888;27;20046;-66
2021/12/28 03:14:36;;;;;;;96.03;36.55;;;5.70;99.90;;;;;;5136466;27;20043;-66
2021/12/28 03:17:03;;;;;;;101.28;37.42;;;5.70;99.90;;;;;;5135899;27;20051;-66
2021/12/28 03:19:30;;;;;;;97.70;38.97;;;5.70;99.90;;;;;;5132656;27;20054;-66
2021/12/28 03:21:58;;;;;;;102.90;39.83;;;5.70;99.90;;;;;;5115169;27;20047;-66
2021/12/28 03:24:25;;;;;;;120.65;42.20;;;5.80;99.90;;;;;;5116184;27;20487;-66
2021/12/28 03:26:52;;;;;;;117.88;39.13;;;5.80;99.90;;;;;;5115780;27;20086;-66
2021/12/28 03:29:21;;;;;;;108.28;38.00;;;5.80;99.90;;;;;;5115335;27;20043;-67
2021/12/28 03:31:48;;;;;;;101.95;39.63;;;5.80;99.90;;;;;;5134323;27;20158;-66
2021/12/28 03:34:15;;;;;;;91.00;36.05;;;5.80;99.90;;;;;;5134450;27;20039;-66
2021/12/28 03:36:42;;;;;;;100.72;41.20;;;5.80;99.90;;;;;;5115087;27;20108;-67
2021/12/28 03:39:09;;;;;;;102.13;38.38;;;5.80;99.90;;;;;;5116128;27;20086;-66
2021/12/28 03:41:36;;;;;;;91.70;35.30;;;5.80;99.90;;;;;;5124673;27;20448;-66
2021/12/28 03:44:04;;;;;;;72.22;35.85;;;5.80;99.90;;;;;;5135601;27;20387;-66
2021/12/28 03:46:33;;;;;;;90.95;35.28;;;5.90;99.90;;;;;;5135832;27;20046;-66
2021/12/28 03:49:00;;;;;;;98.07;36.10;;;5.90;99.90;;;;;;5135644;27;20054;-66
2021/12/28 03:51:27;;;;;;;144.10;48.80;;;6.00;99.90;;;;;;5135176;27;20147;-65
2021/12/28 03:53:54;;;;;;;82.65;34.90;;;5.90;99.90;;;;;;5131989;27;20051;-65
2021/12/28 03:56:22;;;;;;;100.38;38.35;;;5.90;99.90;;;;;;5115366;28;20047;-66
2021/12/28 03:58:51;;;;;;;76.25;32.35;;;5.90;99.90;;;;;;5132912;27;20059;-66
2021/12/28 04:01:20;;;;;;;67.88;32.53;;;5.90;99.90;;;;;;5115301;28;20063;-66
2021/12/28 04:03:50;;;;;;;65.53;31.92;;;5.90;99.90;;;;;;5115600;28;20047;-66
2021/12/28 04:06:19;;;;;;;66.57;29.13;;;5.90;99.90;;;;;;5114962;28;20096;-66
2021/12/28 04:08:46;;;;;;;71.13;35.83;;;5.90;99.90;;;;;;5115234;28;20419;-65
2021/12/28 04:11:28;;;;;;;62.63;32.95;;;5.90;99.90;;;;;;5114845;28;20063;-66
2021/12/28 04:14:00;;;;;;;66.63;31.60;;;6.00;99.90;;;;;;5115478;28;20395;-66
2021/12/28 04:16:27;;;;;;;70.82;31.55;;;6.00;99.90;;;;;;5115211;28;20076;-66
2021/12/28 04:18:56;;;;;;;79.40;32.83;;;6.00;99.90;;;;;;5114787;28;20103;-66
2021/12/28 04:21:23;;;;;;;84.13;33.78;;;6.00;99.90;;;;;;5115518;28;20552;-67
2021/12/28 04:23:50;;;;;;;114.18;32.03;;;5.90;99.90;;;;;;5127126;27;20505;-66
2021/12/28 04:26:17;;;;;;;56.13;27.27;;;5.90;99.90;;;;;;5135048;27;20123;-67
2021/12/28 04:28:45;;;;;;;96.50;31.25;;;5.90;99.90;;;;;;5135492;27;20080;-66
2021/12/28 04:31:12;;;;;;;85.72;27.70;;;5.90;99.90;;;;;;5135781;27;20043;-66
2021/12/28 04:33:39;;;;;;;71.28;26.60;;;5.90;99.90;;;;;;5135173;27;20544;-66
2021/12/28 04:36:10;;;;;;;76.75;29.00;;;5.90;99.90;;;;;;5135461;27;20091;-66
2021/12/28 04:38:37;;;;;;;;;;;5.90;99.90;;;;;;5136195;27;20047;-66
2021/12/28 04:41:05;;;;;;;90.20;28.67;;;5.90;99.90;;;;;;5135049;27;20026;-66
2021/12/28 04:43:32;;;;;;;100.45;29.60;;;5.90;99.90;;;;;;5135720;27;20495;-66
2021/12/28 04:45:59;;;;;;;154.90;33.38;;;5.90;99.90;;;;;;5135231;27;20043;-66
2021/12/28 04:48:26;;;;;;;138.82;35.88;;;5.90;99.90;;;;;;5134736;27;20047;-66
2021/12/28 04:50:53;;;;;;;114.82;32.53;;;5.90;99.90;;;;;;5127653;27;20055;-66
2021/12/28 04:53:22;;;;;;;99.85;34.65;;;5.90;99.90;;;;;;5121178;27;20042;-66
2021/12/28 04:55:51;;;;;;;71.95;30.95;;;5.90;99.90;;;;;;5123745;28;20096;-66
2021/12/28 04:58:19;;;;;;;66.75;30.48;;;5.90;99.90;;;;;;5123177;28;20104;-66
2021/12/28 05:00:48;;;;;;;85.78;33.90;;;6.00;99.90;;;;;;5123950;28;20432;-66
2021/12/28 05:03:16;;;;;;;73.95;32.50;;;6.00;99.90;;;;;;5119785;27;20506;-66
2021/12/28 05:05:45;;;;;;;79.97;33.42;;;6.00;99.90;;;;;;5128363;27;20086;-66
2021/12/28 05:08:13;;;;;;;87.90;35.47;;;6.10;99.90;;;;;;5127163;27;20194;-66
2021/12/28 05:10:42;;;;;;;78.50;33.63;;;6.10;99.90;;;;;;5118021;27;20728;-64
2021/12/28 05:13:10;;;;;;;67.00;31.33;;;6.10;99.90;;;;;;5130501;27;20051;-66
2021/12/28 05:15:37;;;;;;;74.38;30.55;;;6.20;99.90;;;;;;5127901;27;20047;-65
2021/12/28 05:18:05;;;;;;;71.63;29.95;;;6.10;99.90;;;;;;5121290;27;20108;-65
2021/12/28 05:20:32;;;;;;;93.30;33.08;;;6.20;99.90;;;;;;5131552;27;20091;-65
2021/12/28 05:22:59;;;;;;;79.53;31.17;;;6.10;99.90;;;;;;5128211;27;20064;-66
2021/12/28 05:25:25;;;;;;;77.88;30.02;;;6.10;99.90;;;;;;5116572;27;20501;-66
2021/12/28 05:27:54;;;;;;;68.60;29.58;;;6.00;99.90;;;;;;5123593;27;20492;-65
2021/12/28 05:30:21;;;;;;;50.42;26.58;;;6.00;99.90;;;;;;5132914;27;20043;-65
2021/12/28 05:32:48;;;;;;;58.90;28.13;;;6.00;99.90;;;;;;5143470;27;20050;-65
2021/12/28 05:35:16;;;;;;;60.65;28.15;;;5.90;99.90;;;;;;5143928;27;20099;-65
2021/12/28 05:37:43;;;;;;;49.72;24.80;;;6.00;99.90;;;;;;5141483;27;20051;-65
2021/12/28 05:40:12;;;;;;;47.20;23.55;;;5.90;99.90;;;;;;5129908;27;20058;-64
2021/12/28 05:42:40;;;;;;;45.97;22.77;;;5.90;99.90;;;;;;5131709;27;20574;-65
2021/12/28 05:45:09;;;;;;;45.33;23.85;;;5.90;99.90;;;;;;5130618;27;20036;-65
2021/12/28 05:47:36;;;;;;;67.82;30.42;;;5.80;99.90;;;;;;5130337;27;20144;-65
2021/12/28 05:50:05;;;;;;;43.70;23.55;;;5.70;99.90;;;;;;5128872;27;20047;-66
2021/12/28 05:52:32;;;;;;;45.88;22.73;;;5.70;99.90;;;;;;5131128;27;20051;-66
2021/12/28 05:54:59;;;;;;;67.38;28.77;;;5.60;99.90;;;;;;5148983;27;20051;-65
2021/12/28 05:57:26;;;;;;;34.67;20.73;;;5.60;99.90;;;;;;5130867;27;20051;-66
2021/12/28 05:59:53;;;;;;;34.40;20.63;;;5.60;99.90;;;;;;5154369;27;20086;-66
2021/12/28 06:02:21;;;;;;;37.38;21.23;;;5.50;99.90;;;;;;5132020;27;20460;-65
2021/12/28 06:04:48;;;;;;;36.33;20.45;;;5.60;99.90;;;;;;5133182;27;20215;-66
2021/12/28 06:07:15;;;;;;;36.92;20.30;;;5.60;99.90;;;;;;5132098;27;20082;-66
2021/12/28 06:09:42;;;;;;;30.67;19.48;;;5.60;99.90;;;;;;5137052;27;20054;-66
2021/12/28 06:12:10;;;;;;;37.67;21.52;;;5.50;99.90;;;;;;5134432;27;20088;-65
2021/12/28 06:14:37;;;;;;;31.05;19.48;;;5.50;99.90;;;;;;5134158;27;20482;-66
2021/12/28 06:17:04;;;;;;;36.80;19.75;;;5.60;99.90;;;;;;5136170;27;20460;-65
2021/12/28 06:19:32;;;;;;;31.30;19.48;;;5.50;99.90;;;;;;5134910;27;20482;-66
2021/12/28 06:21:59;;;;;;;34.75;19.23;;;5.50;99.90;;;;;;5134326;27;20050;-65
2021/12/28 06:24:26;;;;;;;33.75;19.10;;;5.50;99.90;;;;;;5155094;27;20501;-66
2021/12/28 06:26:53;;;;;;;37.92;19.88;;;5.50;99.90;;;;;;5134535;27;20046;-65
2021/12/28 06:29:20;;;;;;;37.58;19.98;;;5.50;99.90;;;;;;5135558;27;20103;-66
2021/12/28 06:31:47;;;;;;;34.35;18.75;;;5.50;99.90;;;;;;5134595;27;20107;-66
2021/12/28 06:34:14;;;;;;;34.63;18.27;;;5.50;99.90;;;;;;5132062;27;20443;-66
2021/12/28 06:36:42;;;;;;;31.45;18.73;;;5.50;99.90;;;;;;5131601;27;20080;-66
2021/12/28 06:39:09;;;;;;;36.92;20.77;;;5.50;99.90;;;;;;5127980;27;20047;-66
2021/12/28 06:41:38;;;;;;;30.05;17.95;;;5.50;99.90;;;;;;5134097;27;20051;-66
2021/12/28 06:44:06;;;;;;;32.28;18.17;;;5.50;99.90;;;;;;5148732;27;20050;-67
2021/12/28 06:46:33;;;;;;;32.95;18.40;;;5.40;99.90;;;;;;5129630;27;20057;-66
2021/12/28 06:49:00;;;;;;;35.90;20.05;;;5.40;99.90;;;;;;5133138;27;20047;-66
2021/12/28 06:51:27;;;;;;;29.90;16.70;;;5.40;99.90;;;;;;5135702;27;20051;-66
2021/12/28 06:53:55;;;;;;;29.30;16.98;;;5.40;99.90;;;;;;5128904;27;20054;-66
2021/12/28 06:56:22;;;;;;;30.67;16.48;;;5.40;99.90;;;;;;5130540;27;20039;-65
2021/12/28 06:58:49;;;;;;;27.58;16.08;;;5.40;99.90;;;;;;5131713;27;20047;-65
2021/12/28 07:01:16;;;;;;;28.00;17.40;;;5.40;99.90;;;;;;5130576;27;20491;-65
2021/12/28 07:03:43;;;;;;;28.40;16.35;;;5.30;99.90;;;;;;5132827;27;20099;-66
2021/12/28 07:06:10;;;;;;;27.85;15.77;;;5.30;99.90;;;;;;5147673;27;20510;-66
2021/12/28 07:08:38;;;;;;;26.40;16.13;;;5.30;99.90;;;;;;5130404;27;20050;-66
2021/12/28 07:11:06;;;;;;;31.08;15.80;;;5.30;99.90;;;;;;5129895;27;20051;-65
2021/12/28 07:13:33;;;;;;;31.85;16.85;;;5.20;99.90;;;;;;5130023;27;20043;-66
2021/12/28 07:16:00;;;;;;;25.98;15.30;;;5.30;99.90;;;;;;5129895;27;20095;-66
2021/12/28 07:18:27;;;;;;;28.33;15.82;;;5.30;99.90;;;;;;5131383;27;20111;-65
2021/12/28 07:20:54;;;;;;;31.08;16.83;;;5.20;99.90;;;;;;5135598;27;20444;-65
2021/12/28 07:23:21;;;;;;;29.85;16.40;;;5.20;99.90;;;;;;5139990;27;20050;-66
2021/12/28 07:25:49;;;;;;;29.25;15.43;;;5.20;99.90;;;;;;5155806;27;20043;-66
2021/12/28 07:28:18;;;;;;;32.15;17.38;;;5.20;99.90;;;;;;5175209;27;20054;-66
2021/12/28 07:30:44;;;;;;;31.13;16.33;;;5.10;99.90;;;;;;5144279;27;20460;-65
2021/12/28 07:33:11;;;;;;;28.15;15.45;;;5.10;99.90;;;;;;5136054;27;20433;-66
2021/12/28 07:35:38;;;;;;;30.45;17.85;;;5.10;99.90;;;;;;5125156;27;20047;-66
2021/12/28 07:38:05;;;;;;;33.00;16.67;;;5.20;99.90;;;;;;5133978;27;20112;-66
2021/12/28 07:40:32;;;;;;;25.42;15.70;;;5.20;99.90;;;;;;5115043;27;20043;-66
2021/12/28 07:42:59;;;;;;;30.25;16.95;;;5.20;99.90;;;;;;5115060;27;20445;-66
2021/12/28 07:45:27;;;;;;;28.73;16.85;;;5.20;99.90;;;;;;5115109;27;20111;-66
2021/12/28 07:47:54;;;;;;;31.80;17.42;;;5.30;99.90;;;;;;5121155;27;20047;-67
2021/12/28 07:50:21;;;;;;;30.88;17.52;;;5.30;99.90;;;;;;5146799;27;20050;-64
2021/12/28 07:52:49;;;;;;;28.67;15.57;;;5.30;99.90;;;;;;5154732;27;20327;-65
2021/12/28 07:55:17;;;;;;;28.10;15.55;;;5.30;99.90;;;;;;5156176;27;20075;-66
2021/12/28 07:57:44;;;;;;;27.55;16.60;;;5.40;99.90;;;;;;5156210;27;20098;-66
2021/12/28 08:00:14;;;;;;;28.17;16.45;;;5.40;99.90;;;;;;5156403;27;20058;-66
2021/12/28 08:02:45;;;;;;;24.73;14.68;;;5.40;99.90;;;;;;5144681;27;20451;-66
2021/12/28 08:05:13;;;;;;;27.08;15.13;;;5.40;99.90;;;;;;5137357;27;20044;-66
2021/12/28 08:07:40;;;;;;;28.00;14.45;;;5.50;99.90;;;;;;5119259;27;20055;-66
2021/12/28 08:10:10;;;;;;;24.42;14.30;;;5.50;99.90;;;;;;5156059;27;20085;-65
2021/12/28 08:12:36;;;;;;;28.83;14.10;;;5.50;99.90;;;;;;5120079;27;20081;-64
2021/12/28 08:15:04;;;;;;;25.35;14.90;;;5.60;99.90;;;;;;5114943;28;20103;-65
2021/12/28 08:17:31;;;;;;;27.45;13.63;;;5.60;99.90;;;;;;5119709;28;20806;-66
2021/12/28 08:19:59;;;;;;;25.58;12.57;;;5.70;99.90;;;;;;5115379;28;20132;-66
2021/12/28 08:22:26;;;;;;;24.15;12.32;;;5.80;99.90;;;;;;5115164;28;20090;-66
2021/12/28 08:24:54;;;;;;;24.10;13.18;;;5.70;99.90;;;;;;5113488;28;20094;-66
2021/12/28 08:27:21;;;;;;;23.58;12.63;;;5.80;99.90;;;;;;5114873;28;20047;-66
2021/12/28 08:29:48;;;;;;;23.35;11.60;;;5.80;99.90;;;;;;5116095;27;20492;-66
2021/12/28 08:32:16;;;;;;;22.42;12.80;;;5.90;99.90;;;;;;5114286;28;20047;-66
2021/12/28 08:34:43;;;;;;;23.17;12.43;;;5.90;99.90;;;;;;5116193;28;20096;-66
2021/12/28 08:37:12;;;;;;;19.13;11.20;;;5.90;99.90;;;;;;5116394;27;20151;-66
2021/12/28 08:39:39;;;;;;;17.60;10.55;;;5.90;99.90;;;;;;5118885;27;20151;-66
2021/12/28 08:42:06;;;;;;;26.95;11.32;;;6.00;99.90;;;;;;5122496;27;20436;-66
2021/12/28 08:44:33;;;;;;;17.25;9.85;;;6.00;99.90;;;;;;5137402;27;20355;-67
2021/12/28 08:47:00;;;;;;;22.48;10.70;;;6.10;99.90;;;;;;5117888;27;20059;-66
2021/12/28 08:49:27;;;;;;;17.45;10.68;;;6.20;99.90;;;;;;5119501;27;20100;-66
2021/12/28 08:51:54;;;;;;;23.83;11.13;;;6.20;99.90;;;;;;5137148;27;20135;-67
2021/12/28 08:54:22;;;;;;;18.27;10.15;;;6.40;99.90;;;;;;5105478;27;20108;-66
2021/12/28 08:56:51;;;;;;;23.52;10.68;;;6.40;99.90;;;;;;5136831;27;20564;-66
2021/12/28 08:59:19;;;;;;;19.35;10.10;;;6.40;99.90;;;;;;5118595;27;20051;-65
2021/12/28 09:01:46;;;;;;;19.85;10.20;;;6.50;99.90;;;;;;5117741;27;20092;-66
2021/12/28 09:04:13;;;;;;;23.73;9.10;;;6.50;99.90;;;;;;5123464;27;20094;-66
2021/12/28 09:06:39;;;;;;;16.65;8.82;;;6.50;99.90;;;;;;5126487;27;20502;-66
2021/12/28 09:09:06;;;;;;;16.33;8.23;;;6.60;99.90;;;;;;5141702;27;20485;-66
2021/12/28 09:11:36;;;;;;;15.05;8.68;;;6.70;99.90;;;;;;5130976;27;20111;-65
2021/12/28 09:14:03;;;;;;;20.08;7.63;;;6.80;99.90;;;;;;5128021;27;20143;-64
2021/12/28 09:16:30;;;;;;;18.13;8.13;;;6.90;99.90;;;;;;5118034;27;20039;-66
2021/12/28 09:18:58;;;;;;;15.82;8.20;;;7.00;99.90;;;;;;5118601;27;20164;-66
2021/12/28 09:21:24;;;;;;;16.20;7.53;;;7.10;99.90;;;;;;5117574;27;20088;-66
2021/12/28 09:23:51;;;;;;;14.55;6.88;;;7.10;99.90;;;;;;5124797;27;20082;-66
2021/12/28 09:26:18;;;;;;;25.08;7.32;;;7.10;99.90;;;;;;5138228;27;20107;-65
2021/12/28 09:28:46;;;;;;;16.52;7.63;;;7.10;99.90;;;;;;5131958;27;20108;-66
2021/12/28 09:31:14;;;;;;;14.65;7.68;;;7.20;99.90;;;;;;5119293;27;20495;-66
2021/12/28 09:33:41;;;;;;;18.55;7.90;;;7.20;99.90;;;;;;5129476;27;20062;-66
2021/12/28 09:36:11;;;;;;;17.27;7.70;;;7.20;99.90;;;;;;5117260;27;20437;-66
2021/12/28 09:38:38;;;;;;;15.63;7.00;;;7.10;99.90;;;;;;5135371;27;20096;-66
2021/12/28 09:41:05;;;;;;;14.43;6.47;;;7.10;99.90;;;;;;5122163;27;20448;-66
2021/12/28 09:43:32;;;;;;;10.88;5.80;;;7.10;99.90;;;;;;5133386;27;20047;-66
2021/12/28 09:46:01;;;;;;;11.35;6.43;;;7.20;99.90;;;;;;5117522;27;20040;-66
2021/12/28 09:48:27;;;;;;;15.38;6.30;;;7.10;99.90;;;;;;5116953;27;20124;-66
2021/12/28 09:50:54;;;;;;;15.68;6.22;;;7.20;99.90;;;;;;5117284;27;20119;-66
2021/12/28 09:53:22;;;;;;;12.45;6.18;;;7.20;99.90;;;;;;5120065;27;20084;-67
2021/12/28 09:55:49;;;;;;;17.70;6.65;;;7.20;99.90;;;;;;5127725;27;20472;-66
2021/12/28 09:58:16;;;;;;;13.93;6.65;;;7.20;99.90;;;;;;5129329;27;20038;-66
2021/12/28 10:00:43;;;;;;;15.20;7.07;;;7.30;99.90;;;;;;5123470;27;20494;-68
2021/12/28 10:03:12;;;;;;;11.90;6.45;;;7.30;99.90;;;;;;5116135;27;20047;-67
2021/12/28 10:05:38;;;;;;;14.32;6.50;;;7.30;99.90;;;;;;5131386;27;20063;-66
2021/12/28 10:08:07;;;;;;;10.38;6.10;;;7.40;99.90;;;;;;5123621;27;20051;-65
2021/12/28 10:10:35;;;;;;;17.95;5.93;;;7.40;99.90;;;;;;5117011;27;20055;-65
2021/12/28 10:13:05;;;;;;;16.30;6.15;;;7.40;99.90;;;;;;5117104;27;20108;-66
2021/12/28 10:15:34;;;;;;;13.48;5.93;;;7.50;99.90;;;;;;5121027;27;20105;-66
2021/12/28 10:18:03;;;;;;;15.35;6.15;;;7.50;99.90;;;;;;5116675;27;20115;-66
2021/12/28 10:20:34;;;;;;;15.43;6.07;;;7.50;99.90;;;;;;5123052;27;20095;-66
2021/12/28 10:23:03;;;;;;;16.33;6.57;;;7.50;99.90;;;;;;5122654;27;20115;-66
2021/12/28 10:25:32;;;;;;;15.23;6.07;;;7.50;99.90;;;;;;5116409;27;20498;-66
2021/12/28 10:28:01;;;;;;;10.88;6.05;;;7.50;99.90;;;;;;5117727;27;20499;-65
2021/12/28 10:30:30;;;;;;;14.20;5.80;;;7.50;99.90;;;;;;5137556;27;20058;-66
2021/12/28 10:32:59;;;;;;;19.88;5.82;;;7.50;99.90;;;;;;5122373;27;20127;-66
2021/12/28 10:35:27;;;;;;;14.27;5.32;;;7.50;99.90;;;;;;5117998;27;20047;-67
2021/12/28 10:37:58;;;;;;;11.55;5.53;;;7.50;99.90;;;;;;5117312;27;20144;-66
2021/12/28 10:40:29;;;;;;;14.40;6.10;;;7.50;99.90;;;;;;5131417;27;20051;-66
2021/12/28 10:43:03;;;;;;;13.90;5.65;;;7.50;99.90;;;;;;5121345;27;20051;-65
2021/12/28 10:45:37;;;;;;;15.68;7.15;;;7.50;99.90;;;;;;5120961;27;20132;-65
2021/12/28 10:48:14;;;;;;;10.18;5.15;;;7.50;99.90;;;;;;5128791;27;20057;-66
2021/12/28 10:50:44;;;;;;;15.70;5.95;;;7.40;99.90;;;;;;5121530;27;20058;-65
2021/12/28 10:53:19;;;;;;;14.47;6.70;;;7.40;99.90;;;;;;5127200;27;20058;-65
2021/12/28 10:55:49;;;;;;;16.25;6.13;;;7.40;99.90;;;;;;5125641;27;20660;-65
2021/12/28 10:58:29;;;;;;;14.60;5.80;;;7.40;99.90;;;;;;5118316;27;20120;-65
2021/12/28 11:01:00;;;;;;;11.95;6.60;;;7.40;99.90;;;;;;5131674;27;20063;-65
2021/12/28 11:03:33;;;;;;;17.92;6.45;;;7.40;99.90;;;;;;5128823;27;20054;-64
2021/12/28 11:06:06;;;;;;;13.05;7.07;;;7.40;99.90;;;;;;5125802;27;20051;-66
2021/12/28 11:08:35;;;;;;;15.02;7.20;;;7.40;99.90;;;;;;5128704;27;20051;-65
2021/12/28 11:11:05;;;;;;;12.23;6.20;;;7.40;99.90;;;;;;5127443;27;20103;-65
2021/12/28 11:13:33;;;;;;;13.60;6.40;;;7.40;99.90;;;;;;5123906;27;20046;-66
2021/12/28 11:16:01;;;;;;;13.27;7.22;;;7.40;99.90;;;;;;5121122;27;20104;-65
2021/12/28 11:18:33;;;;;;;9.55;6.15;;;7.40;99.90;;;;;;5128535;27;20050;-65
2021/12/28 11:21:02;;;;;;;11.32;6.72;;;7.40;99.90;;;;;;5127653;27;20058;-66
2021/12/28 11:23:31;;;;;;;17.00;6.45;;;7.40;99.90;;;;;;5121768;27;20556;-65
2021/12/28 11:26:08;;;;;;;12.93;6.68;;;7.40;99.90;;;;;;5125400;27;20051;-66
2021/12/28 11:28:35;;;;;;;13.32;5.95;;;7.40;99.90;;;;;;5117129;27;20088;-65
2021/12/28 11:31:06;;;;;;;14.95;7.50;;;7.40;99.90;;;;;;5122747;27;20506;-65
2021/12/28 11:33:55;;;;;;;10.77;6.93;;;7.40;99.90;;;;;;5120834;27;20111;-66
2021/12/28 11:36:24;;;;;;;11.60;6.13;;;7.40;99.90;;;;;;5116792;27;20043;-66
2021/12/28 11:38:53;;;;;;;16.48;7.05;;;7.40;99.90;;;;;;5126624;27;20460;-66
2021/12/28 11:41:22;;;;;;;7.97;5.72;;;7.40;99.90;;;;;;5132570;27;20047;-66
2021/12/28 11:43:49;;;;;;;14.27;6.50;;;7.40;99.90;;;;;;5128825;27;20498;-66
2021/12/28 11:46:16;;;;;;;9.98;6.03;;;7.50;99.90;;;;;;5116938;27;20039;-66
2021/12/28 11:48:44;;;;;;;12.30;6.90;;;7.50;99.90;;;;;;5130923;27;20048;-66
2021/12/28 11:51:11;;;;;;;13.70;6.88;;;7.50;99.90;;;;;;5138125;27;20127;-66
2021/12/28 11:53:40;;;;;;;12.38;6.72;;;7.60;99.90;;;;;;5128022;27;20576;-66
2021/12/28 11:56:09;;;;;;;12.45;6.90;;;7.60;99.90;;;;;;5118517;27;20072;-66
2021/12/28 11:59:08;;;;;;;11.90;7.15;;;7.60;99.90;;;;;;5125764;27;20055;-66
2021/12/28 12:02:03;;;;;;;8.98;6.45;;;7.60;99.90;;;;;;5126291;27;20111;-66
2021/12/28 12:04:57;;;;;;;12.30;7.82;;;7.60;99.90;;;;;;5123167;27;20494;-66
2021/12/28 12:07:37;;;;;;;12.57;7.03;;;7.60;99.90;;;;;;5121881;28;20495;-65
2021/12/28 12:10:31;;;;;;;15.15;7.57;;;7.70;99.90;;;;;;5137318;27;20066;-66
2021/12/28 12:13:21;;;;;;;11.00;7.13;;;7.70;99.90;;;;;;5132732;27;20558;-67
2021/12/28 12:15:53;;;;;;;11.55;7.25;;;7.70;99.90;;;;;;5125226;27;20104;-66
2021/12/28 12:18:23;;;;;;;10.25;6.80;;;7.70;99.90;;;;;;5125135;27;20100;-65
2021/12/28 12:20:56;;;;;;;11.43;7.25;;;7.70;99.90;;;;;;5131736;27;20050;-66
2021/12/28 12:23:26;;;;;;;13.73;6.80;;;7.70;99.90;;;;;;5132783;27;20066;-67
2021/12/28 12:26:09;;;;;;;17.77;7.45;;;7.70;99.90;;;;;;5126916;27;20059;-67
2021/12/28 12:28:54;;;;;;;11.07;7.28;;;7.70;99.90;;;;;;5127765;27;20047;-66
2021/12/28 12:31:30;;;;;;;14.35;6.97;;;7.70;99.90;;;;;;5130394;27;20086;-66
2021/12/28 12:33:58;;;;;;;15.88;7.57;;;7.70;99.90;;;;;;5142055;27;20154;-67
2021/12/28 12:36:33;;;;;;;9.95;6.82;;;7.70;99.90;;;;;;5129749;27;20903;-67
2021/12/28 12:39:01;;;;;;;12.95;7.25;;;7.70;99.90;;;;;;5126954;27;20154;-67
2021/12/28 12:41:41;;;;;;;10.07;6.90;;;7.70;99.90;;;;;;5153804;27;20043;-67
2021/12/28 12:44:12;;;;;;;10.85;7.20;;;7.70;99.90;;;;;;5129165;27;20140;-66
2021/12/28 12:46:44;;;;;;;12.55;6.60;;;7.80;99.90;;;;;;5130950;27;20054;-67
2021/12/28 12:49:31;;;;;;;12.30;6.97;;;7.80;99.90;;;;;;5133216;27;20095;-67